Погода Рокоцинана неделю

Мазовецкое воеводство, Польша

24 - 30 мая
  • 24мая
    Сегодня
    +14°
    +28°
    Ясно и безоблачно
    ВремяПогодаТемператураВлажностьДавлениеВетер, м/сВероятность осадков
    02:00Пасмурно, дождь+15°C96 %757 мм1.1 м/с43 %
    05:00Ясно и безоблачно+14°C98 %758 мм1.1 м/с29 %
    08:00Практически безоблачно+18°C85 %758 мм1.3 м/с7 %
    11:00Практически безоблачно+23°C62 %759 мм1.5 м/с2 %
    14:00Ясно и безоблачно+26°C49 %758 мм2.2 м/с1 %
    17:00Ясно и безоблачно+27°C34 %757 мм4.1 м/с2 %
    20:00Ясно и безоблачно+23°C49 %757 мм2.4 м/с5 %
    23:00Ясно и безоблачно+17°C74 %758 мм1.6 м/с1 %
  • 25мая
    Суббота
    +13°
    +27°
    Облачно с прояснениями
    ВремяПогодаТемператураВлажностьДавлениеВетер, м/сВероятность осадков
    02:00Небольшая облачность+16°C76 %758 мм2.2 м/с2 %
    05:00Облачно с прояснениями+15°C89 %758 мм2.4 м/с2 %
    08:00Ясно и безоблачно+20°C71 %758 мм2.6 м/с2 %
    11:00Практически безоблачно+24°C57 %758 мм2.7 м/с4 %
    14:00Облачно с прояснениями+26°C52 %758 мм2.2 м/с31 %
    17:00Облачно с прояснениями+25°C56 %757 мм2.1 м/с47 %
    20:00Пасмурно, дождь+18°C86 %758 мм0.8 м/с45 %
    23:00Облачно с прояснениями+15°C90 %758 мм1.7 м/с17 %
  • 26мая
    Воскресенье
    +14°
    +28°
    Облачно с прояснениями
    ВремяПогодаТемператураВлажностьДавлениеВетер, м/сВероятность осадков
    02:00Небольшая облачность+14°C93 %758 мм1.7 м/с2 %
    05:00Небольшая облачность+14°C95 %758 мм1.7 м/с2 %
    08:00Небольшая облачность+18°C85 %759 мм1.2 м/с2 %
    11:00Небольшая облачность+24°C55 %759 мм2.1 м/с13 %
    14:00Облачно с прояснениями+26°C40 %759 мм2.6 м/с21 %
    17:00Небольшая облачность+25°C38 %758 мм2.5 м/с41 %
    20:00Практически безоблачно+21°C64 %759 мм1.9 м/с25 %
    23:00Облачно с прояснениями+17°C63 %759 мм2.1 м/с3 %
  • 27мая
    Понедельник
    +13°
    +29°
    Ясно и безоблачно
    ВремяПогодаТемператураВлажностьДавлениеВетер, м/сВероятность осадков
    02:00Ясно и безоблачно+15°C73 %760 мм2.4 м/с2 %
    05:00Ясно и безоблачно+14°C59 %760 мм3.1 м/с2 %
    08:00Ясно и безоблачно+19°C52 %760 мм3.0 м/с2 %
    11:00Ясно и безоблачно+25°C37 %760 мм2.8 м/с4 %
    14:00Ясно и безоблачно+27°C27 %759 мм3.4 м/с5 %
    17:00Ясно и безоблачно+27°C24 %758 мм3.1 м/с6 %
    20:00Ясно и безоблачно+23°C38 %758 мм2.9 м/с2 %
    23:00Ясно и безоблачно+18°C41 %759 мм3.0 м/с2 %
Мы используем cookies
Соглашаюсь